sensor_id;sensor_type;location;lat;lon;timestamp;pressure;altitude;pressure_sealevel;temperature;humidity
11415;BME280;5763;42.714;23.244;2023-03-01T00:01:35;95037.66;;;8.81;79.74
11415;BME280;5763;42.714;23.244;2023-03-01T00:04:02;95034.47;;;8.82;79.75
11415;BME280;5763;42.714;23.244;2023-03-01T00:06:29;95028.44;;;8.75;79.82
11415;BME280;5763;42.714;23.244;2023-03-01T00:08:56;95017.34;;;8.82;80.12
11415;BME280;5763;42.714;23.244;2023-03-01T00:11:25;95018.50;;;8.97;79.49
11415;BME280;5763;42.714;23.244;2023-03-01T00:13:54;95017.63;;;9.00;79.10
11415;BME280;5763;42.714;23.244;2023-03-01T00:16:23;95014.69;;;8.94;78.96
11415;BME280;5763;42.714;23.244;2023-03-01T00:18:50;95009.81;;;9.02;78.63
11415;BME280;5763;42.714;23.244;2023-03-01T00:21:17;95007.25;;;8.95;78.62
11415;BME280;5763;42.714;23.244;2023-03-01T00:23:44;95008.34;;;8.97;78.99
11415;BME280;5763;42.714;23.244;2023-03-01T00:26:13;95002.25;;;8.93;78.68
11415;BME280;5763;42.714;23.244;2023-03-01T00:28:42;94995.22;;;8.92;78.27
11415;BME280;5763;42.714;23.244;2023-03-01T00:31:10;95002.19;;;8.81;78.94
11415;BME280;5763;42.714;23.244;2023-03-01T00:33:38;94999.00;;;8.82;79.27
11415;BME280;5763;42.714;23.244;2023-03-01T00:36:06;94996.94;;;8.86;79.29
11415;BME280;5763;42.714;23.244;2023-03-01T00:38:34;94997.06;;;8.83;78.72
11415;BME280;5763;42.714;23.244;2023-03-01T00:41:03;94992.28;;;8.87;78.30
11415;BME280;5763;42.714;23.244;2023-03-01T00:43:30;94990.25;;;8.75;78.66
11415;BME280;5763;42.714;23.244;2023-03-01T00:46:03;94986.41;;;8.72;79.12
11415;BME280;5763;42.714;23.244;2023-03-01T00:48:30;94983.50;;;8.79;78.58
11415;BME280;5763;42.714;23.244;2023-03-01T00:50:57;94987.78;;;8.80;78.21
11415;BME280;5763;42.714;23.244;2023-03-01T00:53:23;94986.47;;;8.85;78.09
11415;BME280;5763;42.714;23.244;2023-03-01T00:55:50;94976.06;;;8.80;77.98
11415;BME280;5763;42.714;23.244;2023-03-01T00:58:17;94980.38;;;8.81;78.09
11415;BME280;5763;42.714;23.244;2023-03-01T01:00:44;94981.84;;;8.69;78.23
11415;BME280;5763;42.714;23.244;2023-03-01T01:03:12;94985.94;;;8.61;78.76
11415;BME280;5763;42.714;23.244;2023-03-01T01:05:38;94991.22;;;8.68;78.24
11415;BME280;5763;42.714;23.244;2023-03-01T01:08:05;94986.00;;;8.74;77.98
11415;BME280;5763;42.714;23.244;2023-03-01T01:10:33;94990.03;;;8.69;78.56
11415;BME280;5763;42.714;23.244;2023-03-01T01:13:00;94991.13;;;8.72;78.11
11415;BME280;5763;42.714;23.244;2023-03-01T01:15:27;94985.47;;;8.79;77.70
11415;BME280;5763;42.714;23.244;2023-03-01T01:17:54;94976.19;;;8.76;77.77
11415;BME280;5763;42.714;23.244;2023-03-01T01:20:22;94978.22;;;8.88;76.65
11415;BME280;5763;42.714;23.244;2023-03-01T01:22:49;94972.69;;;8.76;76.89
11415;BME280;5763;42.714;23.244;2023-03-01T01:25:16;94976.38;;;8.69;77.48
11415;BME280;5763;42.714;23.244;2023-03-01T01:27:43;94964.59;;;8.72;76.96
11415;BME280;5763;42.714;23.244;2023-03-01T01:30:11;94972.41;;;8.58;77.39
11415;BME280;5763;42.714;23.244;2023-03-01T01:32:38;94973.25;;;8.55;77.09
11415;BME280;5763;42.714;23.244;2023-03-01T01:35:05;94966.88;;;8.45;77.77
11415;BME280;5763;42.714;23.244;2023-03-01T01:37:33;94984.88;;;8.43;77.85
11415;BME280;5763;42.714;23.244;2023-03-01T01:40:00;94981.56;;;8.35;77.96
11415;BME280;5763;42.714;23.244;2023-03-01T01:42:29;94993.66;;;8.34;77.61
11415;BME280;5763;42.714;23.244;2023-03-01T01:45:28;94999.44;;;8.36;77.82
11415;BME280;5763;42.714;23.244;2023-03-01T01:47:58;94989.72;;;8.35;77.47
11415;BME280;5763;42.714;23.244;2023-03-01T01:50:25;94989.22;;;8.40;77.74
11415;BME280;5763;42.714;23.244;2023-03-01T01:53:05;94997.75;;;8.42;77.36
11415;BME280;5763;42.714;23.244;2023-03-01T01:55:33;94998.34;;;8.50;76.91
11415;BME280;5763;42.714;23.244;2023-03-01T01:58:03;94993.53;;;8.54;76.62
11415;BME280;5763;42.714;23.244;2023-03-01T02:00:31;94990.16;;;8.50;76.27
11415;BME280;5763;42.714;23.244;2023-03-01T02:03:01;94974.53;;;8.50;76.00
11415;BME280;5763;42.714;23.244;2023-03-01T02:05:36;94977.63;;;8.52;75.99
11415;BME280;5763;42.714;23.244;2023-03-01T02:08:06;94970.31;;;8.33;76.47
11415;BME280;5763;42.714;23.244;2023-03-01T02:10:35;94963.31;;;8.48;75.81
11415;BME280;5763;42.714;23.244;2023-03-01T02:13:03;94962.53;;;8.48;75.99
11415;BME280;5763;42.714;23.244;2023-03-01T02:15:32;94957.72;;;8.68;74.74
11415;BME280;5763;42.714;23.244;2023-03-01T02:17:59;94947.56;;;8.68;74.71
11415;BME280;5763;42.714;23.244;2023-03-01T02:20:33;94957.59;;;8.71;74.75
11415;BME280;5763;42.714;23.244;2023-03-01T02:23:01;94949.78;;;8.73;74.36
11415;BME280;5763;42.714;23.244;2023-03-01T02:25:35;94950.53;;;8.74;74.46
11415;BME280;5763;42.714;23.244;2023-03-01T02:28:08;94962.13;;;8.78;74.25
11415;BME280;5763;42.714;23.244;2023-03-01T02:30:39;94968.41;;;8.75;74.38
11415;BME280;5763;42.714;23.244;2023-03-01T02:33:26;94963.59;;;8.66;74.83
11415;BME280;5763;42.714;23.244;2023-03-01T02:35:54;94966.56;;;8.72;74.78
11415;BME280;5763;42.714;23.244;2023-03-01T02:38:22;94973.28;;;8.67;75.00
11415;BME280;5763;42.714;23.244;2023-03-01T02:40:50;94974.91;;;8.65;75.37
11415;BME280;5763;42.714;23.244;2023-03-01T02:43:18;94977.44;;;8.59;75.42
11415;BME280;5763;42.714;23.244;2023-03-01T02:45:52;94977.81;;;8.74;74.70
11415;BME280;5763;42.714;23.244;2023-03-01T02:48:20;94965.25;;;8.76;74.33
11415;BME280;5763;42.714;23.244;2023-03-01T02:50:58;94974.75;;;8.72;74.92
11415;BME280;5763;42.714;23.244;2023-03-01T02:53:37;94978.69;;;8.71;74.80
11415;BME280;5763;42.714;23.244;2023-03-01T02:56:06;94971.78;;;8.66;74.87
11415;BME280;5763;42.714;23.244;2023-03-01T02:58:38;94972.66;;;8.63;74.87
11415;BME280;5763;42.714;23.244;2023-03-01T03:01:14;94972.13;;;8.68;74.46
11415;BME280;5763;42.714;23.244;2023-03-01T03:03:42;94961.63;;;8.67;75.29
11415;BME280;5763;42.714;23.244;2023-03-01T03:06:09;94965.78;;;8.71;74.76
11415;BME280;5763;42.714;23.244;2023-03-01T03:08:36;94972.34;;;8.74;74.34
11415;BME280;5763;42.714;23.244;2023-03-01T03:11:03;94960.22;;;8.75;74.64
11415;BME280;5763;42.714;23.244;2023-03-01T03:13:30;94970.72;;;8.76;74.77
11415;BME280;5763;42.714;23.244;2023-03-01T03:15:57;94978.47;;;8.78;74.47
11415;BME280;5763;42.714;23.244;2023-03-01T03:18:26;94969.78;;;8.83;73.81
11415;BME280;5763;42.714;23.244;2023-03-01T03:20:53;94959.69;;;8.51;74.46
11415;BME280;5763;42.714;23.244;2023-03-01T03:23:21;94983.63;;;8.60;74.45
11415;BME280;5763;42.714;23.244;2023-03-01T03:25:49;94989.19;;;8.56;74.39
11415;BME280;5763;42.714;23.244;2023-03-01T03:28:16;94987.66;;;8.55;74.70
11415;BME280;5763;42.714;23.244;2023-03-01T03:30:43;94983.06;;;8.52;75.29
11415;BME280;5763;42.714;23.244;2023-03-01T03:33:11;94988.59;;;8.49;75.30
11415;BME280;5763;42.714;23.244;2023-03-01T03:35:42;94987.06;;;8.48;74.94
11415;BME280;5763;42.714;23.244;2023-03-01T03:38:11;94982.41;;;8.48;75.10
11415;BME280;5763;42.714;23.244;2023-03-01T03:40:43;94984.19;;;8.39;75.12
11415;BME280;5763;42.714;23.244;2023-03-01T03:43:12;94982.56;;;8.41;74.92
11415;BME280;5763;42.714;23.244;2023-03-01T03:45:39;94997.06;;;8.38;75.61
11415;BME280;5763;42.714;23.244;2023-03-01T03:48:12;94994.16;;;8.45;75.29
11415;BME280;5763;42.714;23.244;2023-03-01T03:50:40;94998.31;;;8.34;75.32
11415;BME280;5763;42.714;23.244;2023-03-01T03:53:09;94984.88;;;8.27;75.80
11415;BME280;5763;42.714;23.244;2023-03-01T03:55:37;94992.53;;;8.32;75.83
11415;BME280;5763;42.714;23.244;2023-03-01T03:58:23;94997.75;;;8.26;76.16
11415;BME280;5763;42.714;23.244;2023-03-01T04:00:52;94990.59;;;8.32;75.95
11415;BME280;5763;42.714;23.244;2023-03-01T04:03:19;94990.75;;;8.41;75.82
11415;BME280;5763;42.714;23.244;2023-03-01T04:05:49;94981.91;;;8.37;75.75
11415;BME280;5763;42.714;23.244;2023-03-01T04:08:17;94991.69;;;8.51;75.03
11415;BME280;5763;42.714;23.244;2023-03-01T04:10:46;94997.13;;;8.51;75.39
11415;BME280;5763;42.714;23.244;2023-03-01T04:13:15;95002.16;;;8.52;75.38
11415;BME280;5763;42.714;23.244;2023-03-01T04:15:42;94993.00;;;8.59;75.09
11415;BME280;5763;42.714;23.244;2023-03-01T04:18:12;94992.91;;;8.62;74.75
11415;BME280;5763;42.714;23.244;2023-03-01T04:20:38;94993.97;;;8.52;75.10
11415;BME280;5763;42.714;23.244;2023-03-01T04:23:09;94999.34;;;8.56;74.95
11415;BME280;5763;42.714;23.244;2023-03-01T04:25:42;94993.53;;;8.54;75.06
11415;BME280;5763;42.714;23.244;2023-03-01T04:28:11;94996.44;;;8.47;75.59
11415;BME280;5763;42.714;23.244;2023-03-01T04:30:38;94986.13;;;8.54;75.21
11415;BME280;5763;42.714;23.244;2023-03-01T04:33:08;94994.81;;;8.49;75.38
11415;BME280;5763;42.714;23.244;2023-03-01T04:35:35;94981.44;;;8.39;75.17
11415;BME280;5763;42.714;23.244;2023-03-01T04:38:03;94996.44;;;8.47;75.27
11415;BME280;5763;42.714;23.244;2023-03-01T04:40:31;94984.63;;;8.37;75.50
11415;BME280;5763;42.714;23.244;2023-03-01T04:42:58;94981.13;;;8.37;75.14
11415;BME280;5763;42.714;23.244;2023-03-01T04:45:25;94975.16;;;8.42;75.11
11415;BME280;5763;42.714;23.244;2023-03-01T04:47:53;94973.78;;;8.34;75.37
11415;BME280;5763;42.714;23.244;2023-03-01T04:50:20;94978.59;;;8.30;75.09
11415;BME280;5763;42.714;23.244;2023-03-01T04:52:49;94977.97;;;8.38;74.61
11415;BME280;5763;42.714;23.244;2023-03-01T04:55:16;94971.66;;;8.41;74.39
11415;BME280;5763;42.714;23.244;2023-03-01T04:57:44;94983.44;;;8.38;73.69
11415;BME280;5763;42.714;23.244;2023-03-01T05:00:13;94980.53;;;8.29;72.98
11415;BME280;5763;42.714;23.244;2023-03-01T05:02:50;94981.97;;;8.34;72.50
11415;BME280;5763;42.714;23.244;2023-03-01T05:05:22;94974.47;;;8.38;72.34
11415;BME280;5763;42.714;23.244;2023-03-01T05:07:52;94981.56;;;8.35;72.33
11415;BME280;5763;42.714;23.244;2023-03-01T05:10:19;94976.53;;;8.34;72.12
11415;BME280;5763;42.714;23.244;2023-03-01T05:12:47;94992.47;;;8.35;72.42
11415;BME280;5763;42.714;23.244;2023-03-01T05:15:14;94990.25;;;8.30;72.70
11415;BME280;5763;42.714;23.244;2023-03-01T05:17:41;94989.41;;;8.33;73.28
11415;BME280;5763;42.714;23.244;2023-03-01T05:20:10;94987.88;;;8.32;73.17
11415;BME280;5763;42.714;23.244;2023-03-01T05:22:37;94995.19;;;8.35;73.54
11415;BME280;5763;42.714;23.244;2023-03-01T05:25:04;94999.88;;;8.35;73.68
11415;BME280;5763;42.714;23.244;2023-03-01T05:27:32;94992.47;;;8.35;73.71
11415;BME280;5763;42.714;23.244;2023-03-01T05:30:00;94998.31;;;8.34;74.37
11415;BME280;5763;42.714;23.244;2023-03-01T05:32:40;94991.34;;;8.33;74.50
11415;BME280;5763;42.714;23.244;2023-03-01T05:35:07;94992.88;;;8.34;74.46
11415;BME280;5763;42.714;23.244;2023-03-01T05:37:33;94993.56;;;8.38;74.16
11415;BME280;5763;42.714;23.244;2023-03-01T05:40:01;94988.03;;;8.25;75.00
11415;BME280;5763;42.714;23.244;2023-03-01T05:42:29;94996.22;;;8.25;75.44
11415;BME280;5763;42.714;23.244;2023-03-01T05:44:55;95004.06;;;8.23;75.58
11415;BME280;5763;42.714;23.244;2023-03-01T05:47:24;94995.53;;;8.21;75.92
11415;BME280;5763;42.714;23.244;2023-03-01T05:49:51;95000.63;;;8.19;76.03
11415;BME280;5763;42.714;23.244;2023-03-01T05:52:17;95004.16;;;8.20;76.09
11415;BME280;5763;42.714;23.244;2023-03-01T05:54:44;95010.34;;;8.20;76.20
11415;BME280;5763;42.714;23.244;2023-03-01T05:57:11;95012.56;;;8.25;76.06
11415;BME280;5763;42.714;23.244;2023-03-01T05:59:38;95013.69;;;8.28;75.59
11415;BME280;5763;42.714;23.244;2023-03-01T06:02:04;95007.88;;;8.26;75.68
11415;BME280;5763;42.714;23.244;2023-03-01T06:04:32;95010.94;;;8.28;75.99
11415;BME280;5763;42.714;23.244;2023-03-01T06:06:59;95013.94;;;8.33;75.95
11415;BME280;5763;42.714;23.244;2023-03-01T06:09:26;95022.44;;;8.35;75.80
11415;BME280;5763;42.714;23.244;2023-03-01T06:11:53;95027.75;;;8.42;75.74
11415;BME280;5763;42.714;23.244;2023-03-01T06:14:20;95017.50;;;8.46;75.24
11415;BME280;5763;42.714;23.244;2023-03-01T06:16:46;95014.09;;;8.42;75.37
11415;BME280;5763;42.714;23.244;2023-03-01T06:19:13;95025.75;;;8.43;75.58
11415;BME280;5763;42.714;23.244;2023-03-01T06:21:41;95032.00;;;8.43;75.43
11415;BME280;5763;42.714;23.244;2023-03-01T06:24:08;95037.69;;;8.33;75.42
11415;BME280;5763;42.714;23.244;2023-03-01T06:26:35;95019.72;;;8.35;75.43
11415;BME280;5763;42.714;23.244;2023-03-01T06:29:01;95030.97;;;8.37;75.46
11415;BME280;5763;42.714;23.244;2023-03-01T06:31:28;95036.06;;;8.51;75.54
11415;BME280;5763;42.714;23.244;2023-03-01T06:33:55;95029.84;;;8.51;75.54
11415;BME280;5763;42.714;23.244;2023-03-01T06:36:22;95037.44;;;8.59;74.99
11415;BME280;5763;42.714;23.244;2023-03-01T06:38:50;95038.88;;;8.64;74.24
11415;BME280;5763;42.714;23.244;2023-03-01T06:41:17;95028.41;;;8.46;75.03
11415;BME280;5763;42.714;23.244;2023-03-01T06:43:44;95035.91;;;8.58;74.76
11415;BME280;5763;42.714;23.244;2023-03-01T06:46:10;95027.72;;;8.58;74.96
11415;BME280;5763;42.714;23.244;2023-03-01T06:48:37;95031.38;;;8.52;74.77
11415;BME280;5763;42.714;23.244;2023-03-01T06:51:04;95029.84;;;8.51;74.80
11415;BME280;5763;42.714;23.244;2023-03-01T06:53:31;95039.38;;;8.59;74.32
11415;BME280;5763;42.714;23.244;2023-03-01T06:55:59;95026.03;;;8.48;74.41
11415;BME280;5763;42.714;23.244;2023-03-01T06:58:27;95034.53;;;8.50;74.59
11415;BME280;5763;42.714;23.244;2023-03-01T07:00:53;95035.31;;;8.51;74.30
11415;BME280;5763;42.714;23.244;2023-03-01T07:03:20;95036.84;;;8.52;74.28
11415;BME280;5763;42.714;23.244;2023-03-01T07:05:48;95043.06;;;8.52;74.51
11415;BME280;5763;42.714;23.244;2023-03-01T07:08:17;95035.22;;;8.54;74.43
11415;BME280;5763;42.714;23.244;2023-03-01T07:10:44;95036.41;;;8.69;73.65
11415;BME280;5763;42.714;23.244;2023-03-01T07:13:12;95026.91;;;8.74;73.42
11415;BME280;5763;42.714;23.244;2023-03-01T07:15:40;95029.31;;;8.72;72.98
11415;BME280;5763;42.714;23.244;2023-03-01T07:18:06;95039.34;;;8.75;73.80
11415;BME280;5763;42.714;23.244;2023-03-01T07:20:33;95041.13;;;8.81;73.04
11415;BME280;5763;42.714;23.244;2023-03-01T07:23:01;95022.28;;;8.87;72.06
11415;BME280;5763;42.714;23.244;2023-03-01T07:25:27;95023.72;;;8.91;72.64
11415;BME280;5763;42.714;23.244;2023-03-01T07:27:54;95020.13;;;8.94;71.95
11415;BME280;5763;42.714;23.244;2023-03-01T07:30:23;95018.06;;;8.98;72.48
11415;BME280;5763;42.714;23.244;2023-03-01T07:32:51;95020.19;;;9.07;71.84
11415;BME280;5763;42.714;23.244;2023-03-01T07:35:18;95016.25;;;9.08;71.90
11415;BME280;5763;42.714;23.244;2023-03-01T07:37:45;95025.69;;;9.19;71.17
11415;BME280;5763;42.714;23.244;2023-03-01T07:40:12;95014.13;;;9.28;71.05
11415;BME280;5763;42.714;23.244;2023-03-01T07:42:39;95028.53;;;9.28;70.71
11415;BME280;5763;42.714;23.244;2023-03-01T07:45:07;95020.44;;;9.25;70.75
11415;BME280;5763;42.714;23.244;2023-03-01T07:47:35;95027.38;;;9.29;70.50
11415;BME280;5763;42.714;23.244;2023-03-01T07:50:02;95023.53;;;9.39;70.23
11415;BME280;5763;42.714;23.244;2023-03-01T07:52:30;95022.00;;;9.38;70.34
11415;BME280;5763;42.714;23.244;2023-03-01T07:54:57;95018.22;;;9.48;69.40
11415;BME280;5763;42.714;23.244;2023-03-01T07:57:24;95009.25;;;9.35;69.65
11415;BME280;5763;42.714;23.244;2023-03-01T07:59:51;95006.41;;;9.39;70.25
11415;BME280;5763;42.714;23.244;2023-03-01T08:02:18;95005.44;;;9.45;70.07
11415;BME280;5763;42.714;23.244;2023-03-01T08:04:46;95017.09;;;9.46;69.85
11415;BME280;5763;42.714;23.244;2023-03-01T08:07:13;95008.47;;;9.35;69.79
11415;BME280;5763;42.714;23.244;2023-03-01T08:09:40;95007.94;;;9.40;69.52
11415;BME280;5763;42.714;23.244;2023-03-01T08:12:07;95010.91;;;9.45;69.17
11415;BME280;5763;42.714;23.244;2023-03-01T08:14:33;95012.97;;;9.54;68.46
11415;BME280;5763;42.714;23.244;2023-03-01T08:17:00;95009.59;;;9.50;68.74
11415;BME280;5763;42.714;23.244;2023-03-01T08:19:29;95008.38;;;9.51;68.52
11415;BME280;5763;42.714;23.244;2023-03-01T08:21:57;95013.94;;;9.47;68.42
11415;BME280;5763;42.714;23.244;2023-03-01T08:24:25;95010.97;;;9.42;68.61
11415;BME280;5763;42.714;23.244;2023-03-01T08:26:52;95008.69;;;9.40;68.78
11415;BME280;5763;42.714;23.244;2023-03-01T08:29:19;95001.28;;;9.53;67.90
11415;BME280;5763;42.714;23.244;2023-03-01T08:31:46;94996.69;;;9.50;68.77
11415;BME280;5763;42.714;23.244;2023-03-01T08:34:15;95005.56;;;9.67;68.03
11415;BME280;5763;42.714;23.244;2023-03-01T08:36:43;95003.28;;;9.65;67.98
11415;BME280;5763;42.714;23.244;2023-03-01T08:39:14;95004.25;;;9.59;67.41
11415;BME280;5763;42.714;23.244;2023-03-01T08:41:41;95011.81;;;9.67;67.65
11415;BME280;5763;42.714;23.244;2023-03-01T08:44:09;95008.19;;;9.83;67.11
11415;BME280;5763;42.714;23.244;2023-03-01T08:46:39;95008.41;;;9.88;67.11
11415;BME280;5763;42.714;23.244;2023-03-01T08:49:07;95006.53;;;9.85;67.34
11415;BME280;5763;42.714;23.244;2023-03-01T08:51:34;95009.31;;;9.73;67.71
11415;BME280;5763;42.714;23.244;2023-03-01T08:54:02;95001.53;;;9.84;66.95
11415;BME280;5763;42.714;23.244;2023-03-01T08:56:31;95009.94;;;9.89;66.70
11415;BME280;5763;42.714;23.244;2023-03-01T08:58:57;95014.16;;;10.06;66.77
11415;BME280;5763;42.714;23.244;2023-03-01T09:01:25;95012.50;;;10.21;66.33
11415;BME280;5763;42.714;23.244;2023-03-01T09:03:52;95018.84;;;10.18;65.52
11415;BME280;5763;42.714;23.244;2023-03-01T09:06:18;95010.19;;;9.95;66.07
11415;BME280;5763;42.714;23.244;2023-03-01T09:08:47;94995.41;;;9.92;66.61
11415;BME280;5763;42.714;23.244;2023-03-01T09:11:17;94997.94;;;10.12;65.84
11415;BME280;5763;42.714;23.244;2023-03-01T09:13:46;94999.38;;;10.16;65.97
11415;BME280;5763;42.714;23.244;2023-03-01T09:16:15;95007.91;;;10.18;65.36
11415;BME280;5763;42.714;23.244;2023-03-01T09:18:42;95011.38;;;10.31;63.39
11415;BME280;5763;42.714;23.244;2023-03-01T09:21:13;95002.19;;;10.25;64.94
11415;BME280;5763;42.714;23.244;2023-03-01T09:23:42;95004.28;;;10.21;63.83
11415;BME280;5763;42.714;23.244;2023-03-01T09:26:10;94992.22;;;10.31;63.51
11415;BME280;5763;42.714;23.244;2023-03-01T09:28:38;94999.34;;;10.29;63.18
11415;BME280;5763;42.714;23.244;2023-03-01T09:31:07;94987.00;;;10.24;63.47
11415;BME280;5763;42.714;23.244;2023-03-01T09:33:35;95002.09;;;10.16;62.79
11415;BME280;5763;42.714;23.244;2023-03-01T09:36:03;95003.19;;;10.19;63.17
11415;BME280;5763;42.714;23.244;2023-03-01T09:38:31;94994.78;;;10.13;63.68
11415;BME280;5763;42.714;23.244;2023-03-01T09:40:59;94987.22;;;10.30;63.85
11415;BME280;5763;42.714;23.244;2023-03-01T09:43:31;94982.84;;;10.32;63.48
11415;BME280;5763;42.714;23.244;2023-03-01T09:46:04;94987.81;;;10.46;63.44
11415;BME280;5763;42.714;23.244;2023-03-01T09:48:41;94985.06;;;10.46;62.96
11415;BME280;5763;42.714;23.244;2023-03-01T09:51:14;94992.69;;;10.17;63.86
11415;BME280;5763;42.714;23.244;2023-03-01T09:53:44;94972.25;;;10.09;64.45
11415;BME280;5763;42.714;23.244;2023-03-01T09:56:16;94980.25;;;10.04;64.32
11415;BME280;5763;42.714;23.244;2023-03-01T09:58:49;94981.97;;;10.10;64.56
11415;BME280;5763;42.714;23.244;2023-03-01T10:01:28;94971.34;;;10.25;64.33
11415;BME280;5763;42.714;23.244;2023-03-01T10:04:12;94971.97;;;10.29;63.83
11415;BME280;5763;42.714;23.244;2023-03-01T10:06:54;94973.38;;;10.46;63.77
11415;BME280;5763;42.714;23.244;2023-03-01T10:09:24;94971.41;;;10.46;63.28
11415;BME280;5763;42.714;23.244;2023-03-01T10:11:53;94969.53;;;10.56;63.27
11415;BME280;5763;42.714;23.244;2023-03-01T10:14:30;94972.44;;;10.61;63.34
11415;BME280;5763;42.714;23.244;2023-03-01T10:17:02;94970.06;;;10.63;62.10
11415;BME280;5763;42.714;23.244;2023-03-01T10:19:32;94970.69;;;10.33;62.31
11415;BME280;5763;42.714;23.244;2023-03-01T10:22:03;94964.56;;;10.29;62.57
11415;BME280;5763;42.714;23.244;2023-03-01T10:24:32;94958.66;;;10.18;63.24
11415;BME280;5763;42.714;23.244;2023-03-01T10:27:04;94957.66;;;10.37;63.66
11415;BME280;5763;42.714;23.244;2023-03-01T10:29:39;94955.47;;;10.66;61.96
11415;BME280;5763;42.714;23.244;2023-03-01T10:32:09;94978.31;;;10.72;62.19
11415;BME280;5763;42.714;23.244;2023-03-01T10:34:38;94956.31;;;10.76;61.55
11415;BME280;5763;42.714;23.244;2023-03-01T10:37:13;94957.97;;;10.73;61.88
11415;BME280;5763;42.714;23.244;2023-03-01T10:40:06;94950.66;;;10.92;62.02
11415;BME280;5763;42.714;23.244;2023-03-01T10:42:35;94955.81;;;11.11;60.73
11415;BME280;5763;42.714;23.244;2023-03-01T10:45:19;94953.97;;;11.30;60.29
11415;BME280;5763;42.714;23.244;2023-03-01T10:48:03;94943.78;;;11.30;59.71
11415;BME280;5763;42.714;23.244;2023-03-01T10:50:32;94942.06;;;11.24;59.51
11415;BME280;5763;42.714;23.244;2023-03-01T10:53:01;94956.91;;;11.14;59.64
11415;BME280;5763;42.714;23.244;2023-03-01T10:55:31;94937.22;;;11.06;59.98
11415;BME280;5763;42.714;23.244;2023-03-01T10:58:16;94946.34;;;11.03;59.66
11415;BME280;5763;42.714;23.244;2023-03-01T11:00:50;94941.78;;;10.66;60.73
11415;BME280;5763;42.714;23.244;2023-03-01T11:03:20;94949.47;;;10.59;61.15
11415;BME280;5763;42.714;23.244;2023-03-01T11:05:58;94945.56;;;10.60;61.29
11415;BME280;5763;42.714;23.244;2023-03-01T11:08:34;94952.41;;;10.64;61.49
11415;BME280;5763;42.714;23.244;2023-03-01T11:11:17;94942.00;;;10.72;60.84
11415;BME280;5763;42.714;23.244;2023-03-01T11:13:51;94946.63;;;10.84;60.43
11415;BME280;5763;42.714;23.244;2023-03-01T11:16:24;94951.13;;;10.56;60.55
11415;BME280;5763;42.714;23.244;2023-03-01T11:19:00;94940.66;;;10.55;60.52
11415;BME280;5763;42.714;23.244;2023-03-01T11:21:32;94933.78;;;10.38;60.97
11415;BME280;5763;42.714;23.244;2023-03-01T11:24:01;94939.69;;;10.36;61.79
11415;BME280;5763;42.714;23.244;2023-03-01T11:26:31;94899.06;;;10.01;61.72
11415;BME280;5763;42.714;23.244;2023-03-01T11:29:26;94936.84;;;10.40;61.64
11415;BME280;5763;42.714;23.244;2023-03-01T11:31:57;94927.34;;;10.32;62.28
11415;BME280;5763;42.714;23.244;2023-03-01T11:34:36;94920.59;;;10.24;62.55
11415;BME280;5763;42.714;23.244;2023-03-01T11:37:16;94938.41;;;10.28;62.36
11415;BME280;5763;42.714;23.244;2023-03-01T11:39:54;94928.03;;;10.23;63.05
11415;BME280;5763;42.714;23.244;2023-03-01T11:42:30;94914.47;;;10.20;62.68
11415;BME280;5763;42.714;23.244;2023-03-01T11:45:09;94912.47;;;10.33;63.29
11415;BME280;5763;42.714;23.244;2023-03-01T11:47:52;94905.75;;;10.46;63.49
11415;BME280;5763;42.714;23.244;2023-03-01T11:50:27;94887.00;;;10.57;63.24
11415;BME280;5763;42.714;23.244;2023-03-01T11:53:05;94887.00;;;10.57;62.59
11415;BME280;5763;42.714;23.244;2023-03-01T11:55:54;94888.00;;;10.51;62.88
11415;BME280;5763;42.714;23.244;2023-03-01T11:58:52;94892.56;;;10.54;62.74
11415;BME280;5763;42.714;23.244;2023-03-01T12:01:32;94892.44;;;10.36;63.09
11415;BME280;5763;42.714;23.244;2023-03-01T12:04:26;94895.91;;;10.36;63.93
11415;BME280;5763;42.714;23.244;2023-03-01T12:06:59;94887.94;;;10.42;63.99
11415;BME280;5763;42.714;23.244;2023-03-01T12:09:37;94878.38;;;10.46;64.60
11415;BME280;5763;42.714;23.244;2023-03-01T12:12:20;94874.28;;;10.63;63.66
11415;BME280;5763;42.714;23.244;2023-03-01T12:15:02;94877.25;;;10.78;63.66
11415;BME280;5763;42.714;23.244;2023-03-01T12:17:46;94881.38;;;10.82;62.76
11415;BME280;5763;42.714;23.244;2023-03-01T12:20:25;94882.34;;;10.88;62.53
11415;BME280;5763;42.714;23.244;2023-03-01T12:23:25;94887.00;;;11.00;62.29
11415;BME280;5763;42.714;23.244;2023-03-01T12:25:56;94872.28;;;11.07;61.79
11415;BME280;5763;42.714;23.244;2023-03-01T12:28:55;94888.69;;;11.37;60.85
11415;BME280;5763;42.714;23.244;2023-03-01T12:31:40;94877.28;;;11.69;60.46
11415;BME280;5763;42.714;23.244;2023-03-01T12:34:18;94875.34;;;11.79;58.78
11415;BME280;5763;42.714;23.244;2023-03-01T12:37:02;94871.28;;;11.92;58.79
11415;BME280;5763;42.714;23.244;2023-03-01T12:39:44;94871.03;;;12.26;57.59
11415;BME280;5763;42.714;23.244;2023-03-01T12:42:24;94873.75;;;12.35;56.71
11415;BME280;5763;42.714;23.244;2023-03-01T12:45:05;94875.63;;;12.47;56.56
11415;BME280;5763;42.714;23.244;2023-03-01T12:47:54;94870.09;;;12.29;57.37
11415;BME280;5763;42.714;23.244;2023-03-01T12:50:29;94874.84;;;12.47;56.51
11415;BME280;5763;42.714;23.244;2023-03-01T12:53:01;94874.84;;;12.47;56.75
11415;BME280;5763;42.714;23.244;2023-03-01T12:55:29;94877.72;;;12.25;57.15
11415;BME280;5763;42.714;23.244;2023-03-01T12:58:04;94883.06;;;12.38;56.94
11415;BME280;5763;42.714;23.244;2023-03-01T13:00:38;94869.03;;;12.63;55.88
11415;BME280;5763;42.714;23.244;2023-03-01T13:03:15;94869.66;;;12.58;55.80
11415;BME280;5763;42.714;23.244;2023-03-01T13:05:55;94870.09;;;12.56;56.44
11415;BME280;5763;42.714;23.244;2023-03-01T13:08:29;94870.09;;;12.56;56.14
11415;BME280;5763;42.714;23.244;2023-03-01T13:11:00;94874.38;;;12.39;56.26
11415;BME280;5763;42.714;23.244;2023-03-01T13:13:30;94872.41;;;12.31;56.63
11415;BME280;5763;42.714;23.244;2023-03-01T13:15:57;94864.94;;;12.22;56.98
11415;BME280;5763;42.714;23.244;2023-03-01T13:18:44;94880.75;;;12.18;56.99
11415;BME280;5763;42.714;23.244;2023-03-01T13:21:11;94875.41;;;12.06;57.58
11415;BME280;5763;42.714;23.244;2023-03-01T13:23:38;94876.72;;;11.83;58.57
11415;BME280;5763;42.714;23.244;2023-03-01T13:26:16;94871.09;;;11.87;58.44